createdAt,value
2022-10-11T00:02:25.253Z,101350.97
2022-10-11T00:04:53.858Z,101350.94
2022-10-11T00:07:24.193Z,101358.22
2022-10-11T00:09:52.107Z,101348.53
2022-10-11T00:12:19.445Z,101349.75
2022-10-11T00:14:47.081Z,101349.38
2022-10-11T00:17:20.261Z,101350.59
2022-10-11T00:19:52.415Z,101352.56
2022-10-11T00:22:24.755Z,101347.66
2022-10-11T00:24:55.105Z,101352.97
2022-10-11T00:27:25.387Z,101356.56
2022-10-11T00:29:55.588Z,101352.16
2022-10-11T00:32:24.080Z,101350.91
2022-10-11T00:34:51.411Z,101349.66
2022-10-11T00:37:20.532Z,101348.44
2022-10-11T00:39:54.520Z,101351.28
2022-10-11T00:42:23.098Z,101350.91
2022-10-11T00:44:51.363Z,101339.16
2022-10-11T00:47:22.003Z,101341.63
2022-10-11T00:50:04.083Z,101339.97
2022-10-11T00:52:50.451Z,101336.31
2022-10-11T00:55:26.936Z,101340.31
2022-10-11T00:57:56.733Z,101338.69
2022-10-11T01:00:30.478Z,101339.16
2022-10-11T01:03:04.052Z,101341.13
2022-10-11T01:05:31.990Z,101341.94
2022-10-11T01:08:03.507Z,101342.75
2022-10-11T01:10:33.524Z,101341.22
2022-10-11T01:13:33.150Z,101344.16
2022-10-11T01:16:16.116Z,101347.81
2022-10-11T01:18:43.877Z,101332.50
2022-10-11T01:21:17.585Z,101337.31
2022-10-11T01:23:50.638Z,101333.72
2022-10-11T01:26:41.414Z,101329.75
2022-10-11T01:29:30.298Z,101337.44
2022-10-11T01:32:16.477Z,101337.81
2022-10-11T01:35:06.409Z,101341.84
2022-10-11T01:37:41.325Z,101323.63
2022-10-11T01:40:22.306Z,101333.38
2022-10-11T01:42:57.486Z,101326.09
2022-10-11T01:45:27.590Z,101329.75
2022-10-11T01:48:11.478Z,101321.63
2022-10-11T01:50:45.094Z,101326.53
2022-10-11T01:53:40.216Z,101316.78
2022-10-11T01:56:37.713Z,101322.44
2022-10-11T01:59:08.337Z,101322.88
2022-10-11T02:01:47.691Z,101315.25
2022-10-11T02:04:33.002Z,101310.34
2022-10-11T02:07:15.786Z,101303.53
2022-10-11T02:09:52.882Z,101306.34
2022-10-11T02:12:43.528Z,101298.97
2022-10-11T02:15:19.844Z,101302.28
2022-10-11T02:17:55.549Z,101297.41
2022-10-11T02:20:29.361Z,101288.91
2022-10-11T02:23:05.818Z,101299.44
2022-10-11T02:25:36.522Z,101291.69
2022-10-11T02:28:20.514Z,101290.47
2022-10-11T02:30:54.592Z,101287.25
2022-10-11T02:33:31.984Z,101290.44
2022-10-11T02:36:08.522Z,101284.72
2022-10-11T02:39:03.704Z,101284.25
2022-10-11T02:41:40.384Z,101285.88
2022-10-11T02:44:23.909Z,101289.09
2022-10-11T02:46:54.786Z,101288.66
2022-10-11T02:49:25.203Z,101283.34
2022-10-11T02:51:58.673Z,101285.78
2022-10-11T02:54:29.304Z,101278.06
2022-10-11T02:56:59.944Z,101276.00
2022-10-11T02:59:30.502Z,101280.84
2022-10-11T03:02:03.987Z,101273.56
2022-10-11T03:04:31.564Z,101279.28
2022-10-11T03:07:02.015Z,101273.59
2022-10-11T03:09:34.905Z,101276.38
2022-10-11T03:12:04.955Z,101278.78
2022-10-11T03:14:35.488Z,101282.84
2022-10-11T03:17:30.938Z,101283.66
2022-10-11T03:19:57.599Z,101277.16
2022-10-11T03:22:28.360Z,101292.09
2022-10-11T03:25:04.341Z,101287.59
2022-10-11T03:27:33.492Z,101285.63
2022-10-11T03:30:05.176Z,101290.88
2022-10-11T03:32:41.454Z,101292.09
2022-10-11T03:35:15.363Z,101288.03
2022-10-11T03:37:48.564Z,101289.63
2022-10-11T03:40:21.245Z,101294.00
2022-10-11T03:42:51.752Z,101296.38
2022-10-11T03:45:21.894Z,101299.19
2022-10-11T03:47:50.377Z,101293.56
2022-10-11T03:50:20.629Z,101290.72
2022-10-11T03:52:53.449Z,101293.16
2022-10-11T03:55:24.009Z,101289.13
2022-10-11T03:57:53.963Z,101293.16
2022-10-11T04:00:27.595Z,101284.66
2022-10-11T04:03:03.701Z,101290.69
2022-10-11T04:05:35.634Z,101294.31
2022-10-11T04:08:09.836Z,101294.75
2022-10-11T04:10:44.672Z,101284.56
2022-10-11T04:13:16.372Z,101284.63
2022-10-11T04:15:50.091Z,101292.75
2022-10-11T04:18:23.545Z,101286.28
2022-10-11T04:20:56.862Z,101290.34
2022-10-11T04:23:27.431Z,101283.44
2022-10-11T04:26:00.542Z,101291.91
2022-10-11T04:28:33.992Z,101293.94
2022-10-11T04:31:05.239Z,101293.94
2022-10-11T04:33:33.255Z,101296.78
2022-10-11T04:36:04.148Z,101290.69
2022-10-11T04:38:35.240Z,101293.94
2022-10-11T04:41:15.577Z,101293.50
2022-10-11T04:43:43.252Z,101297.91
2022-10-11T04:46:13.664Z,101304.00
2022-10-11T04:48:44.337Z,101292.66
2022-10-11T04:51:12.216Z,101302.75
2022-10-11T04:53:43.077Z,101291.41
2022-10-11T04:56:15.132Z,101302.78
2022-10-11T04:58:42.948Z,101308.44
2022-10-11T05:01:16.164Z,101305.13
2022-10-11T05:03:46.393Z,101302.31
2022-10-11T05:06:19.921Z,101299.06
2022-10-11T05:08:50.421Z,101307.16
2022-10-11T05:11:21.292Z,101295.84
2022-10-11T05:13:51.955Z,101298.28
2022-10-11T05:16:23.425Z,101300.66
2022-10-11T05:18:57.135Z,101295.44
2022-10-11T05:21:29.516Z,101297.50
2022-10-11T05:24:02.865Z,101302.75
2022-10-11T05:26:33.061Z,101301.47
2022-10-11T05:29:02.855Z,101306.72
2022-10-11T05:31:38.201Z,101306.66
2022-10-11T05:34:06.093Z,101316.00
2022-10-11T05:36:36.796Z,101310.66
2022-10-11T05:39:10.639Z,101316.84
2022-10-11T05:41:41.805Z,101319.19
2022-10-11T05:44:12.419Z,101324.06
2022-10-11T05:46:43.749Z,101321.69
2022-10-11T05:49:14.492Z,101325.72
2022-10-11T05:51:48.641Z,101329.53
2022-10-11T05:54:19.274Z,101332.13
2022-10-11T05:56:55.761Z,101340.69
2022-10-11T05:59:26.601Z,101342.53
2022-10-11T06:01:57.092Z,101344.41
2022-10-11T06:04:28.270Z,101347.72
2022-10-11T06:06:59.002Z,101348.56
2022-10-11T06:09:34.893Z,101354.59
2022-10-11T06:12:05.276Z,101346.97
2022-10-11T06:14:52.606Z,101353.94
2022-10-11T06:17:29.027Z,101358.03
2022-10-11T06:19:59.410Z,101364.25
2022-10-11T06:22:32.887Z,101361.84
2022-10-11T06:25:03.120Z,101363.44
2022-10-11T06:27:33.620Z,101361.72
2022-10-11T06:30:04.900Z,101369.03
2022-10-11T06:32:41.913Z,101372.38
2022-10-11T06:35:12.197Z,101376.84
2022-10-11T06:37:43.187Z,101380.75
2022-10-11T06:40:17.767Z,101379.13
2022-10-11T06:42:54.560Z,101373.63
2022-10-11T06:45:28.811Z,101378.63
2022-10-11T06:48:01.878Z,101384.75
2022-10-11T06:50:57.927Z,101388.38
2022-10-11T06:53:31.731Z,101388.38
2022-10-11T06:56:13.099Z,101394.47
2022-10-11T06:58:44.073Z,101390.75
2022-10-11T07:01:26.677Z,101388.75
2022-10-11T07:04:01.925Z,101388.72
2022-10-11T07:06:31.781Z,101388.72
2022-10-11T07:09:06.175Z,101390.78
2022-10-11T07:11:34.799Z,101394.41
2022-10-11T07:14:08.129Z,101398.47
2022-10-11T07:16:38.892Z,101392.84
2022-10-11T07:19:10.851Z,101403.81
2022-10-11T07:21:41.484Z,101402.97
2022-10-11T07:24:09.650Z,101406.66
2022-10-11T07:26:43.653Z,101405.44
2022-10-11T07:29:17.422Z,101399.72
2022-10-11T07:31:48.187Z,101404.22
2022-10-11T07:34:16.456Z,101404.59
2022-10-11T07:36:52.829Z,101401.34
2022-10-11T07:39:21.480Z,101400.06
2022-10-11T07:41:52.571Z,101409.88
2022-10-11T07:44:21.113Z,101406.13
2022-10-11T07:46:52.503Z,101413.38
2022-10-11T07:49:24.207Z,101416.59
2022-10-11T07:51:59.086Z,101411.34
2022-10-11T07:54:41.809Z,101412.13
2022-10-11T07:57:15.801Z,101413.84
2022-10-11T07:59:50.458Z,101416.25
2022-10-11T08:02:24.659Z,101424.75
2022-10-11T08:04:58.211Z,101419.81
2022-10-11T08:07:31.843Z,101412.16
2022-10-11T08:10:05.469Z,101412.56
2022-10-11T08:12:36.084Z,101419.88
2022-10-11T08:15:13.433Z,101417.03
2022-10-11T08:17:49.999Z,101421.56
2022-10-11T08:20:23.911Z,101420.00
2022-10-11T08:22:51.735Z,101426.50
2022-10-11T08:25:22.918Z,101421.56
2022-10-11T08:27:51.567Z,101418.81
2022-10-11T08:30:22.669Z,101424.06
2022-10-11T08:32:53.476Z,101425.72
2022-10-11T08:35:21.218Z,101428.56
2022-10-11T08:37:49.132Z,101426.44
2022-10-11T08:40:23.193Z,101425.63
2022-10-11T08:43:04.781Z,101427.25
2022-10-11T08:46:01.911Z,101435.47
2022-10-11T08:48:37.278Z,101435.34
2022-10-11T08:51:35.860Z,101436.09
2022-10-11T08:54:21.300Z,101447.53
2022-10-11T08:56:56.351Z,101435.06
2022-10-11T08:59:45.943Z,101435.47
2022-10-11T09:02:55.804Z,101431.81
2022-10-11T09:05:28.307Z,101420.44
2022-10-11T09:08:32.475Z,101420.84
2022-10-11T09:11:03.477Z,101417.19
2022-10-11T09:13:58.175Z,101424.06
2022-10-11T09:16:48.718Z,101424.22
2022-10-11T09:19:32.096Z,101415.44
2022-10-11T09:22:32.275Z,101425.78
2022-10-11T09:25:12.249Z,101421.91
2022-10-11T09:28:13.315Z,101430.72
2022-10-11T09:30:51.147Z,101422.63
2022-10-11T09:33:42.790Z,101422.84
2022-10-11T09:36:40.117Z,101424.13
2022-10-11T09:39:30.873Z,101420.06
2022-10-11T09:42:11.488Z,101433.84
2022-10-11T09:44:50.413Z,101434.25
2022-10-11T09:47:30.078Z,101437.09
2022-10-11T09:50:06.613Z,101423.31
2022-10-11T09:52:34.822Z,101429.00
2022-10-11T09:55:29.328Z,101428.56
2022-10-11T09:58:00.358Z,101430.19
2022-10-11T10:00:33.725Z,101429.78
2022-10-11T10:03:05.875Z,101420.88
2022-10-11T10:05:37.563Z,101424.13
2022-10-11T10:08:11.048Z,101425.72
2022-10-11T10:11:04.652Z,101425.28
2022-10-11T10:13:51.422Z,101421.28
2022-10-11T10:16:22.375Z,101422.09
2022-10-11T10:19:23.391Z,101422.88
2022-10-11T10:21:58.353Z,101432.66
2022-10-11T10:24:34.949Z,101419.63
2022-10-11T10:27:14.922Z,101432.63
2022-10-11T10:30:01.037Z,101424.91
2022-10-11T10:32:55.826Z,101429.38
2022-10-11T10:35:36.250Z,101437.09
2022-10-11T10:38:16.902Z,101435.84
2022-10-11T10:40:49.756Z,101433.81
2022-10-11T10:43:27.029Z,101432.22
2022-10-11T10:46:03.712Z,101427.34
2022-10-11T10:49:34.824Z,101422.06
2022-10-11T10:52:10.637Z,101413.53
2022-10-11T10:55:00.409Z,101417.59
2022-10-11T10:57:46.975Z,101410.63
2022-10-11T11:00:22.154Z,101417.91
2022-10-11T11:03:18.356Z,101411.84
2022-10-11T11:06:05.251Z,101412.59
2022-10-11T11:08:55.035Z,101409.69
2022-10-11T11:11:54.312Z,101413.75
2022-10-11T11:14:44.157Z,101410.47
2022-10-11T11:17:30.885Z,101410.44
2022-10-11T11:20:06.249Z,101414.88
2022-10-11T11:22:49.409Z,101406.59
2022-10-11T11:25:27.554Z,101410.19
2022-10-11T11:28:16.458Z,101408.59
2022-10-11T11:31:11.617Z,101408.56
2022-10-11T11:33:48.910Z,101413.75
2022-10-11T11:36:27.744Z,101412.84
2022-10-11T11:39:05.907Z,101407.97
2022-10-11T11:41:41.366Z,101401.97
2022-10-11T11:44:31.213Z,101406.00
2022-10-11T11:47:11.915Z,101400.28
2022-10-11T11:49:48.774Z,101399.91
2022-10-11T11:52:31.476Z,101402.72
2022-10-11T11:55:08.107Z,101410.63
2022-10-11T11:57:49.883Z,101400.59
2022-10-11T12:00:27.633Z,101401.81
2022-10-11T12:03:21.795Z,101410.34
2022-10-11T12:06:08.309Z,101397.31
2022-10-11T12:08:42.063Z,101403.00
2022-10-11T12:11:26.284Z,101404.06
2022-10-11T12:13:59.466Z,101407.22
2022-10-11T12:16:34.816Z,101397.19
2022-10-11T12:19:09.538Z,101396.78
2022-10-11T12:21:44.501Z,101408.16
2022-10-11T12:24:24.539Z,101395.19
2022-10-11T12:27:18.478Z,101389.50
2022-10-11T12:29:52.944Z,101392.28
2022-10-11T12:32:35.879Z,101382.16
2022-10-11T12:35:38.500Z,101388.22
2022-10-11T12:38:21.681Z,101389.56
2022-10-11T12:41:00.721Z,101389.78
2022-10-11T12:43:36.349Z,101392.25
2022-10-11T12:46:31.186Z,101388.19
2022-10-11T12:49:09.604Z,101382.59
2022-10-11T12:51:54.016Z,101381.78
2022-10-11T12:54:46.337Z,101386.75
2022-10-11T12:57:23.837Z,101379.06
2022-10-11T12:59:54.983Z,101381.06
2022-10-11T13:02:44.937Z,101385.13
2022-10-11T13:05:31.453Z,101380.19
2022-10-11T13:08:12.648Z,101374.97
2022-10-11T13:10:46.369Z,101377.38
2022-10-11T13:13:40.243Z,101371.75
2022-10-11T13:16:20.737Z,101370.94
2022-10-11T13:19:02.867Z,101368.09
2022-10-11T13:21:38.807Z,101363.59
2022-10-11T13:24:18.823Z,101364.44
2022-10-11T13:26:52.192Z,101359.50
2022-10-11T13:29:29.757Z,101359.09
2022-10-11T13:32:04.504Z,101351.44
2022-10-11T13:34:39.429Z,101360.78
2022-10-11T13:37:13.314Z,101364.41
2022-10-11T13:39:45.493Z,101359.16
2022-10-11T13:42:19.311Z,101355.88
2022-10-11T13:44:47.872Z,101351.84
2022-10-11T13:47:27.989Z,101350.63
2022-10-11T13:50:17.264Z,101343.31
2022-10-11T13:53:01.201Z,101344.50
2022-10-11T13:56:00.053Z,101341.28
2022-10-11T13:58:46.274Z,101348.59
2022-10-11T14:01:22.594Z,101346.16
2022-10-11T14:04:04.096Z,101338.00
2022-10-11T14:06:39.908Z,101343.72
2022-10-11T14:09:17.704Z,101339.66
2022-10-11T14:11:52.035Z,101342.50
2022-10-11T14:14:33.912Z,101340.50
2022-10-11T14:17:16.999Z,101333.56
2022-10-11T14:19:47.328Z,101332.38
2022-10-11T14:22:18.023Z,101334.41
2022-10-11T14:24:49.062Z,101330.31
2022-10-11T14:27:23.356Z,101328.28
2022-10-11T14:30:20.319Z,101326.59
2022-10-11T14:32:58.282Z,101320.50
2022-10-11T14:35:34.365Z,101321.66
2022-10-11T14:38:07.139Z,101314.31
2022-10-11T14:40:37.474Z,101319.66
2022-10-11T14:43:11.556Z,101314.69
2022-10-11T14:45:47.877Z,101309.34
2022-10-11T14:48:43.057Z,101315.81
2022-10-11T14:51:13.427Z,101314.72
2022-10-11T14:53:46.455Z,101313.41
2022-10-11T14:56:21.136Z,101297.75
2022-10-11T14:58:52.544Z,101308.50
2022-10-11T15:01:26.348Z,101311.78
2022-10-11T15:03:58.373Z,101312.63
2022-10-11T15:06:33.017Z,101304.56
2022-10-11T15:09:04.791Z,101311.88
2022-10-11T15:11:36.860Z,101305.41
2022-10-11T15:14:07.514Z,101296.84
2022-10-11T15:16:36.593Z,101303.69
2022-10-11T15:19:05.740Z,101302.13
2022-10-11T15:21:36.998Z,101298.56
2022-10-11T15:24:05.908Z,101299.31
2022-10-11T15:26:38.266Z,101306.19
2022-10-11T15:29:09.966Z,101295.53
2022-10-11T15:31:39.119Z,101298.31
2022-10-11T15:34:07.545Z,101302.19
2022-10-11T15:36:38.544Z,101292.97
2022-10-11T15:39:28.765Z,101303.63
2022-10-11T15:42:04.939Z,101301.22
2022-10-11T15:44:38.275Z,101298.47
2022-10-11T15:47:06.100Z,101298.16
2022-10-11T15:49:36.356Z,101303.44
2022-10-11T15:52:04.396Z,101305.53
2022-10-11T15:54:34.989Z,101303.09
2022-10-11T15:57:09.181Z,101296.59
2022-10-11T15:59:40.070Z,101312.03
2022-10-11T16:02:17.265Z,101301.91
2022-10-11T16:04:48.081Z,101303.94
2022-10-11T16:07:22.441Z,101298.66
2022-10-11T16:09:54.610Z,101308.41
2022-10-11T16:12:25.058Z,101305.16
2022-10-11T16:14:56.409Z,101306.78
2022-10-11T16:17:24.731Z,101307.22
2022-10-11T16:19:52.871Z,101308.41
2022-10-11T16:22:26.918Z,101303.56
2022-10-11T16:24:57.684Z,101302.31
2022-10-11T16:27:26.782Z,101312.81
2022-10-11T16:29:57.432Z,101316.06
2022-10-11T16:32:28.534Z,101317.69
2022-10-11T16:34:59.845Z,101319.72
2022-10-11T16:37:31.610Z,101319.28
2022-10-11T16:39:59.668Z,101312.78
2022-10-11T16:42:30.704Z,101320.06
2022-10-11T16:45:04.043Z,101324.53
2022-10-11T16:47:34.888Z,101329.72
2022-10-11T16:50:09.386Z,101324.81
2022-10-11T16:52:40.234Z,101333.75
2022-10-11T16:55:08.811Z,101331.25
2022-10-11T16:57:42.723Z,101333.31
2022-10-11T17:00:17.160Z,101338.94
2022-10-11T17:02:45.252Z,101344.13
2022-10-11T17:05:16.157Z,101342.88
2022-10-11T17:07:46.967Z,101349.38
2022-10-11T17:10:17.231Z,101347.31
2022-10-11T17:12:49.899Z,101355.00
2022-10-11T17:15:18.271Z,101344.38
2022-10-11T17:17:46.169Z,101344.00
2022-10-11T17:20:16.532Z,101347.19
2022-10-11T17:22:44.502Z,101348.91
2022-10-11T17:25:12.550Z,101349.72
2022-10-11T17:27:40.791Z,101351.19
2022-10-11T17:30:09.878Z,101354.66
2022-10-11T17:32:40.682Z,101351.41
2022-10-11T17:35:19.631Z,101358.69
2022-10-11T17:37:50.792Z,101356.72
2022-10-11T17:40:22.587Z,101357.16
2022-10-11T17:42:50.444Z,101360.91
2022-10-11T17:45:24.585Z,101361.31
2022-10-11T17:48:00.631Z,101365.78
2022-10-11T17:50:34.291Z,101366.63
2022-10-11T17:53:04.500Z,101364.59
2022-10-11T17:55:35.143Z,101365.88
2022-10-11T17:58:11.184Z,101366.28
2022-10-11T18:00:43.975Z,101368.38
2022-10-11T18:03:14.317Z,101368.31
2022-10-11T18:05:45.014Z,101369.97
2022-10-11T18:08:18.842Z,101361.84
2022-10-11T18:10:51.827Z,101366.69
2022-10-11T18:13:24.835Z,101362.69
2022-10-11T18:15:55.270Z,101366.75
2022-10-11T18:18:23.693Z,101359.88
2022-10-11T18:20:51.784Z,101371.63
2022-10-11T18:23:25.505Z,101373.19
2022-10-11T18:25:58.687Z,101379.31
2022-10-11T18:28:32.203Z,101376.06
2022-10-11T18:31:00.723Z,101380.91
2022-10-11T18:33:35.437Z,101376.47
2022-10-11T18:36:07.425Z,101377.66
2022-10-11T18:38:46.180Z,101380.09
2022-10-11T18:41:20.673Z,101384.13
2022-10-11T18:43:57.863Z,101374.38
2022-10-11T18:46:31.170Z,101380.03
2022-10-11T18:49:01.330Z,101384.53
2022-10-11T18:51:36.899Z,101386.16
2022-10-11T18:54:09.447Z,101382.09
2022-10-11T18:56:40.022Z,101393.47
2022-10-11T18:59:15.679Z,101389.41
2022-10-11T19:01:46.620Z,101395.09
2022-10-11T19:04:16.857Z,101391.44
2022-10-11T19:06:50.433Z,101392.22
2022-10-11T19:09:23.738Z,101396.72
2022-10-11T19:11:54.760Z,101393.44
2022-10-11T19:14:28.640Z,101399.13
2022-10-11T19:16:57.064Z,101402.34
2022-10-11T19:19:28.931Z,101404.78
2022-10-11T19:21:58.849Z,101406.38
2022-10-11T19:24:28.509Z,101409.25
2022-10-11T19:27:02.703Z,101405.59
2022-10-11T19:29:34.387Z,101409.66
2022-10-11T19:32:07.082Z,101408.78
2022-10-11T19:34:35.848Z,101400.69
2022-10-11T19:37:06.022Z,101408.84
2022-10-11T19:39:39.223Z,101407.59
2022-10-11T19:42:09.753Z,101417.28
2022-10-11T19:44:39.865Z,101411.25
2022-10-11T19:47:10.841Z,101418.09
2022-10-11T19:49:40.978Z,101417.28
2022-10-11T19:52:13.342Z,101418.91
2022-10-11T19:54:44.205Z,101415.28
2022-10-11T19:57:16.876Z,101420.53
2022-10-11T19:59:47.646Z,101412.84
2022-10-11T20:02:24.629Z,101418.50
2022-10-11T20:05:00.568Z,101434.22
2022-10-11T20:07:30.669Z,101426.19
2022-10-11T20:10:03.476Z,101425.41
2022-10-11T20:12:33.828Z,101441.16
2022-10-11T20:15:06.955Z,101432.28
2022-10-11T20:17:50.077Z,101433.41
2022-10-11T20:20:23.356Z,101434.69
2022-10-11T20:22:53.996Z,101435.44
2022-10-11T20:25:26.653Z,101434.69
2022-10-11T20:27:57.111Z,101438.72
2022-10-11T20:30:30.129Z,101432.59
2022-10-11T20:33:05.552Z,101436.25
2022-10-11T20:35:38.347Z,101442.38
2022-10-11T20:38:05.774Z,101437.09
2022-10-11T20:40:33.161Z,101439.53
2022-10-11T20:43:05.860Z,101441.91
2022-10-11T20:45:36.195Z,101441.16
2022-10-11T20:48:03.952Z,101446.84
2022-10-11T20:50:31.891Z,101443.13
2022-10-11T20:53:05.281Z,101437.47
2022-10-11T20:55:37.291Z,101446.78
2022-10-11T20:58:12.420Z,101451.63
2022-10-11T21:00:40.634Z,101451.63
2022-10-11T21:03:09.538Z,101449.97
2022-10-11T21:05:39.913Z,101452.34
2022-10-11T21:08:15.101Z,101454.81
2022-10-11T21:10:53.291Z,101458.03
2022-10-11T21:13:22.014Z,101453.97
2022-10-11T21:15:55.247Z,101449.91
2022-10-11T21:18:24.862Z,101458.03
2022-10-11T21:20:57.795Z,101453.25
2022-10-11T21:23:25.387Z,101459.72
2022-10-11T21:26:00.870Z,101456.09
2022-10-11T21:28:39.335Z,101459.72
2022-10-11T21:31:15.711Z,101464.59
2022-10-11T21:33:47.190Z,101463.31
2022-10-11T21:36:21.070Z,101467.00
2022-10-11T21:38:51.736Z,101458.81
2022-10-11T21:41:21.907Z,101454.34
2022-10-11T21:43:52.895Z,101445.91
2022-10-11T21:46:53.974Z,101460.44
2022-10-11T21:49:20.826Z,101462.47
2022-10-11T21:51:50.930Z,101457.94
2022-10-11T21:54:20.997Z,101465.28
2022-10-11T21:56:48.699Z,101459.22
2022-10-11T21:59:24.210Z,101458.81
2022-10-11T22:02:01.678Z,101451.53
2022-10-11T22:04:35.151Z,101450.69
2022-10-11T22:07:04.948Z,101456.34
2022-10-11T22:09:40.131Z,101451.88
2022-10-11T22:12:12.674Z,101453.91
2022-10-11T22:14:48.379Z,101450.31
2022-10-11T22:17:21.563Z,101449.50
2022-10-11T22:19:50.023Z,101446.22
2022-10-11T22:22:20.419Z,101450.69
2022-10-11T22:24:53.303Z,101445.00
2022-10-11T22:27:26.978Z,101445.81
2022-10-11T22:30:00.944Z,101436.94
2022-10-11T22:32:29.824Z,101433.31
2022-10-11T22:34:59.860Z,101434.09
2022-10-11T22:37:33.532Z,101444.19
2022-10-11T22:40:10.065Z,101432.50
2022-10-11T22:42:43.036Z,101441.38
2022-10-11T22:45:18.721Z,101436.06
2022-10-11T22:47:54.593Z,101437.75
2022-10-11T22:50:28.017Z,101433.22
2022-10-11T22:52:57.914Z,101440.50
2022-10-11T22:55:28.471Z,101442.53
2022-10-11T22:58:02.045Z,101447.34
2022-10-11T23:00:29.670Z,101438.44
2022-10-11T23:03:01.731Z,101449.00
2022-10-11T23:05:29.385Z,101448.09
2022-10-11T23:08:02.265Z,101449.81
2022-10-11T23:10:43.849Z,101446.56
2022-10-11T23:13:15.285Z,101442.53
2022-10-11T23:15:50.904Z,101452.63
2022-10-11T23:18:23.273Z,101451.44
2022-10-11T23:20:55.452Z,101449.38
2022-10-11T23:23:25.819Z,101458.66
2022-10-11T23:26:14.089Z,101452.19
2022-10-11T23:28:43.015Z,101453.38
2022-10-11T23:31:18.746Z,101452.16
2022-10-11T23:33:51.142Z,101455.38
2022-10-11T23:36:26.015Z,101461.91
2022-10-11T23:38:55.863Z,101455.00
2022-10-11T23:41:28.953Z,101461.84
2022-10-11T23:43:57.147Z,101464.25
2022-10-11T23:46:33.085Z,101463.06
2022-10-11T23:49:11.126Z,101457.03
2022-10-11T23:51:43.479Z,101456.25
2022-10-11T23:54:16.389Z,101464.69
2022-10-11T23:56:50.031Z,101468.34
2022-10-11T23:59:25.165Z,101468.34
